createdAt,value
2024-03-21T00:00:32.222Z,10
2024-03-21T00:01:32.385Z,10
2024-03-21T00:02:46.527Z,10
2024-03-21T00:04:00.642Z,10
2024-03-21T00:05:14.770Z,10
2024-03-21T00:06:28.893Z,10
2024-03-21T00:07:43.025Z,10
2024-03-21T00:08:57.143Z,10
2024-03-21T00:10:11.258Z,10
2024-03-21T00:10:48.377Z,9
2024-03-21T00:12:02.458Z,10
2024-03-21T00:13:16.598Z,9
2024-03-21T00:13:53.648Z,10
2024-03-21T00:15:07.765Z,9
2024-03-21T00:15:44.819Z,9
2024-03-21T00:16:58.953Z,8
2024-03-21T00:18:13.096Z,9
2024-03-21T00:18:50.137Z,10
2024-03-21T00:20:04.254Z,9
2024-03-21T00:20:41.322Z,9
2024-03-21T00:22:32.888Z,9
2024-03-21T00:25:01.195Z,9
2024-03-21T00:26:15.301Z,9
2024-03-21T00:27:29.428Z,9
2024-03-21T00:29:57.691Z,9
2024-03-21T00:31:11.839Z,9
2024-03-21T00:32:25.968Z,9
2024-03-21T00:34:54.541Z,9
2024-03-21T00:36:08.366Z,9
2024-03-21T00:37:22.535Z,9
2024-03-21T00:38:36.632Z,9
2024-03-21T00:41:04.891Z,9
2024-03-21T00:42:19.038Z,8
2024-03-21T00:43:33.196Z,8
2024-03-21T00:46:01.432Z,8
2024-03-21T00:47:15.572Z,9
2024-03-21T00:48:29.696Z,8
2024-03-21T00:50:57.978Z,8
2024-03-21T00:52:12.094Z,9
2024-03-21T00:53:26.234Z,8
2024-03-21T00:55:54.500Z,8
2024-03-21T00:57:08.640Z,7
2024-03-21T00:58:23.161Z,7
2024-03-21T00:59:36.906Z,8
2024-03-21T01:02:05.924Z,7
2024-03-21T01:04:34.201Z,6
2024-03-21T01:19:32.103Z,7
2024-03-21T01:20:32.115Z,8
2024-03-21T01:21:32.110Z,8
2024-03-21T01:22:32.165Z,8
2024-03-21T01:23:32.118Z,8
2024-03-21T01:24:32.109Z,7
2024-03-21T01:25:32.107Z,8
2024-03-21T01:26:32.111Z,9
2024-03-21T01:27:32.117Z,8
2024-03-21T01:28:32.162Z,8
2024-03-21T01:29:32.111Z,8
2024-03-21T01:30:32.113Z,9
2024-03-21T01:31:32.108Z,9
2024-03-21T01:32:32.123Z,9
2024-03-21T01:33:32.115Z,8
2024-03-21T01:34:32.171Z,9
2024-03-21T01:35:32.148Z,8
2024-03-21T01:36:32.117Z,8
2024-03-21T01:37:32.114Z,8
2024-03-21T01:38:32.116Z,8
2024-03-21T01:39:32.117Z,8
2024-03-21T01:40:32.161Z,9
2024-03-21T01:41:32.119Z,8
2024-03-21T01:42:32.114Z,10
2024-03-21T01:43:32.120Z,10
2024-03-21T01:44:32.125Z,10
2024-03-21T01:45:32.130Z,10
2024-03-21T01:46:32.164Z,10
2024-03-21T01:47:32.183Z,10
2024-03-21T01:48:32.123Z,10
2024-03-21T01:49:32.117Z,10
2024-03-21T01:50:32.117Z,11
2024-03-21T01:51:32.131Z,10
2024-03-21T01:52:32.117Z,11
2024-03-21T01:53:32.129Z,13
2024-03-21T01:54:32.122Z,12
2024-03-21T01:55:32.120Z,11
2024-03-21T01:56:32.124Z,14
2024-03-21T01:57:32.156Z,12
2024-03-21T01:58:32.119Z,13
2024-03-21T01:59:32.124Z,12
2024-03-21T02:00:32.193Z,12
2024-03-21T02:01:32.175Z,13
2024-03-21T02:02:32.197Z,12
2024-03-21T02:03:32.178Z,14
2024-03-21T02:04:32.177Z,14
2024-03-21T02:05:32.197Z,13
2024-03-21T02:06:32.179Z,14
2024-03-21T02:07:32.182Z,13
2024-03-21T02:08:32.178Z,13
2024-03-21T02:09:32.182Z,14
2024-03-21T02:10:32.172Z,13
2024-03-21T02:11:32.171Z,13
2024-03-21T02:12:32.322Z,12
2024-03-21T02:13:32.173Z,14
2024-03-21T02:14:32.178Z,15
2024-03-21T02:15:32.179Z,14
2024-03-21T02:16:32.169Z,13
2024-03-21T02:17:32.270Z,15
2024-03-21T02:18:32.264Z,14
2024-03-21T02:19:32.576Z,16
2024-03-21T02:20:32.260Z,14
2024-03-21T02:21:32.275Z,15
2024-03-21T02:22:32.263Z,14
2024-03-21T02:23:32.274Z,14
2024-03-21T02:24:32.268Z,14
2024-03-21T02:25:32.265Z,14
2024-03-21T02:26:32.263Z,16
2024-03-21T02:27:32.268Z,16
2024-03-21T02:28:32.264Z,14
2024-03-21T02:29:32.653Z,13
2024-03-21T02:30:32.265Z,14
2024-03-21T02:31:32.330Z,15
2024-03-21T02:32:32.278Z,14
2024-03-21T02:33:32.478Z,14
2024-03-21T02:34:46.617Z,14
2024-03-21T02:36:00.708Z,14
2024-03-21T02:37:14.831Z,13
2024-03-21T02:38:28.954Z,13
2024-03-21T02:39:43.073Z,14
2024-03-21T02:40:57.212Z,16
2024-03-21T02:42:11.320Z,17
2024-03-21T02:42:48.393Z,15
2024-03-21T02:44:02.530Z,13
2024-03-21T02:45:16.630Z,13
2024-03-21T02:45:53.704Z,13
2024-03-21T02:47:07.818Z,14
2024-03-21T02:47:44.874Z,15
2024-03-21T02:48:59.008Z,13
2024-03-21T02:50:13.129Z,14
2024-03-21T02:50:50.194Z,15
2024-03-21T02:52:04.318Z,15
2024-03-21T02:52:41.386Z,15
2024-03-21T02:53:55.881Z,15
2024-03-21T02:56:24.157Z,14
2024-03-21T02:57:38.287Z,14
2024-03-21T03:00:06.567Z,15
2024-03-21T03:01:20.687Z,15
2024-03-21T03:02:34.821Z,14
2024-03-21T03:05:03.098Z,15
2024-03-21T03:06:17.218Z,14
2024-03-21T03:07:31.353Z,14
2024-03-21T03:09:59.614Z,16
2024-03-21T03:11:13.765Z,13
2024-03-21T03:12:27.891Z,14
2024-03-21T03:14:56.162Z,14
2024-03-21T03:16:10.288Z,14
2024-03-21T03:17:25.348Z,15
2024-03-21T03:18:38.561Z,14
2024-03-21T03:21:06.818Z,14
2024-03-21T03:22:20.957Z,14
2024-03-21T03:23:35.089Z,14
2024-03-21T03:26:03.354Z,12
2024-03-21T03:27:17.486Z,14
2024-03-21T03:28:31.633Z,14
2024-03-21T03:30:59.888Z,13
2024-03-21T03:32:14.034Z,13
2024-03-21T03:33:28.165Z,13
2024-03-21T03:37:11.324Z,13
2024-03-21T04:04:32.174Z,12
2024-03-21T04:05:32.191Z,13
2024-03-21T04:06:32.207Z,12
2024-03-21T04:07:32.264Z,12
2024-03-21T04:08:32.165Z,12
2024-03-21T04:09:32.190Z,11
2024-03-21T04:10:32.185Z,12
2024-03-21T04:11:32.183Z,11
2024-03-21T04:12:32.178Z,12
2024-03-21T04:13:32.197Z,11
2024-03-21T04:14:32.191Z,11
2024-03-21T04:15:32.190Z,11
2024-03-21T04:16:32.186Z,11
2024-03-21T04:17:32.191Z,10
2024-03-21T04:18:32.190Z,11
2024-03-21T04:19:32.179Z,12
2024-03-21T04:20:32.180Z,11
2024-03-21T04:21:32.182Z,11
2024-03-21T04:22:32.172Z,12
2024-03-21T04:23:32.182Z,11
2024-03-21T04:24:32.183Z,12
2024-03-21T04:25:32.186Z,12
2024-03-21T04:26:32.187Z,12
2024-03-21T04:27:32.191Z,12
2024-03-21T04:28:32.184Z,13
2024-03-21T04:29:32.202Z,13
2024-03-21T04:30:32.186Z,13
2024-03-21T04:31:32.189Z,12
2024-03-21T04:32:32.185Z,12
2024-03-21T04:33:32.187Z,11
2024-03-21T04:34:32.193Z,11
2024-03-21T04:35:32.216Z,10
2024-03-21T04:36:32.195Z,12
2024-03-21T04:37:32.187Z,11
2024-03-21T04:38:45.429Z,11
2024-03-21T04:39:32.192Z,10
2024-03-21T04:40:32.187Z,11
2024-03-21T04:41:32.191Z,11
2024-03-21T04:42:32.186Z,11
2024-03-21T04:43:32.207Z,11
2024-03-21T04:44:32.235Z,11
2024-03-21T04:45:32.233Z,10
2024-03-21T04:46:33.411Z,11
2024-03-21T04:47:32.241Z,10
2024-03-21T04:48:32.235Z,10
2024-03-21T04:49:32.251Z,10
2024-03-21T04:50:32.248Z,10
2024-03-21T04:51:32.237Z,10
2024-03-21T04:52:32.244Z,11
2024-03-21T04:53:32.239Z,10
2024-03-21T04:54:32.239Z,10
2024-03-21T04:55:32.239Z,10
2024-03-21T04:56:32.239Z,10
2024-03-21T04:57:32.236Z,10
2024-03-21T04:58:32.259Z,10
2024-03-21T04:59:32.246Z,10
2024-03-21T05:00:32.324Z,11
2024-03-21T05:01:32.328Z,10
2024-03-21T05:02:32.326Z,10
2024-03-21T05:03:32.347Z,10
2024-03-21T05:04:32.337Z,9
2024-03-21T05:05:32.338Z,10
2024-03-21T05:06:32.342Z,10
2024-03-21T05:07:32.355Z,9
2024-03-21T05:08:32.331Z,9
2024-03-21T05:09:32.340Z,10
2024-03-21T05:10:32.346Z,11
2024-03-21T05:11:32.346Z,10
2024-03-21T05:12:32.331Z,9
2024-03-21T05:13:32.336Z,10
2024-03-21T05:14:32.330Z,9
2024-03-21T05:15:32.528Z,10
2024-03-21T05:16:46.648Z,10
2024-03-21T05:18:01.932Z,9
2024-03-21T05:19:14.910Z,10
2024-03-21T05:20:29.059Z,10
2024-03-21T05:21:43.150Z,11
2024-03-21T05:22:57.291Z,9
2024-03-21T05:24:13.482Z,9
2024-03-21T05:24:48.444Z,10
2024-03-21T05:26:02.579Z,9
2024-03-21T05:27:16.725Z,9
2024-03-21T05:27:53.763Z,9
2024-03-21T05:29:07.899Z,10
2024-03-21T05:29:44.947Z,10
2024-03-21T05:30:59.080Z,10
2024-03-21T05:32:13.209Z,10
2024-03-21T05:32:50.264Z,10
2024-03-21T05:34:04.394Z,11
2024-03-21T05:34:41.478Z,10
2024-03-21T05:35:55.951Z,12
2024-03-21T05:37:10.086Z,10
2024-03-21T05:39:38.356Z,10
2024-03-21T05:42:06.618Z,12
2024-03-21T05:43:20.753Z,11
2024-03-21T05:44:34.888Z,10
2024-03-21T05:47:03.150Z,12
2024-03-21T05:49:31.433Z,12
2024-03-21T05:51:59.691Z,12
2024-03-21T05:53:13.824Z,12
2024-03-21T05:54:27.952Z,11
2024-03-21T05:56:56.225Z,13
2024-03-21T05:58:10.355Z,11
2024-03-21T05:59:24.489Z,13
2024-03-21T06:00:38.617Z,12
2024-03-21T06:03:06.884Z,13
2024-03-21T06:04:21.025Z,12
2024-03-21T06:05:35.159Z,14
2024-03-21T06:08:03.421Z,13
2024-03-21T06:09:17.555Z,13
2024-03-21T06:10:31.699Z,14
2024-03-21T06:12:59.957Z,14
2024-03-21T06:14:14.094Z,13
2024-03-21T06:15:28.229Z,13
2024-03-21T06:19:11.390Z,13
2024-03-21T06:27:45.349Z,13
2024-03-21T06:28:32.230Z,11
2024-03-21T06:29:32.227Z,11
2024-03-21T06:30:32.230Z,12
2024-03-21T06:31:32.230Z,11
2024-03-21T06:32:32.268Z,11
2024-03-21T06:33:33.006Z,11
2024-03-21T06:34:32.222Z,11
2024-03-21T06:35:32.227Z,11
2024-03-21T06:36:32.234Z,10
2024-03-21T06:37:32.444Z,11
2024-03-21T06:38:32.240Z,12
2024-03-21T06:39:32.238Z,11
2024-03-21T06:40:32.225Z,10
2024-03-21T06:41:32.237Z,11
2024-03-21T06:42:32.228Z,11
2024-03-21T06:43:32.228Z,11
2024-03-21T06:44:32.242Z,11
2024-03-21T06:45:32.248Z,11
2024-03-21T06:46:32.239Z,12
2024-03-21T06:47:32.236Z,12
2024-03-21T06:48:32.234Z,11
2024-03-21T06:49:32.230Z,11
2024-03-21T06:50:32.239Z,11
2024-03-21T06:51:32.235Z,10
2024-03-21T06:52:32.243Z,12
2024-03-21T06:53:32.226Z,11
2024-03-21T06:54:32.239Z,11
2024-03-21T06:55:32.238Z,11
2024-03-21T06:56:32.236Z,10
2024-03-21T06:57:32.234Z,10
2024-03-21T06:58:32.236Z,10
2024-03-21T06:59:32.236Z,10
2024-03-21T07:00:32.239Z,10
2024-03-21T07:01:32.234Z,10
2024-03-21T07:02:32.244Z,10
2024-03-21T07:03:32.244Z,10
2024-03-21T07:04:32.243Z,8
2024-03-21T07:05:32.260Z,9
2024-03-21T07:06:32.241Z,8
2024-03-21T07:07:32.240Z,9
2024-03-21T07:08:32.290Z,9
2024-03-21T07:09:32.287Z,9
2024-03-21T07:10:32.291Z,8
2024-03-21T07:11:32.298Z,8
2024-03-21T07:12:32.307Z,8
2024-03-21T07:13:35.656Z,6
2024-03-21T07:14:32.285Z,6
2024-03-21T07:15:32.297Z,6
2024-03-21T07:16:32.293Z,6
2024-03-21T07:17:32.291Z,6
2024-03-21T07:18:32.307Z,7
2024-03-21T07:20:32.300Z,6
2024-03-21T07:21:32.291Z,6
2024-03-21T07:22:32.290Z,5
2024-03-21T07:23:33.437Z,6
2024-03-21T07:24:32.380Z,5
2024-03-21T07:25:32.377Z,5
2024-03-21T07:26:32.383Z,6
2024-03-21T07:27:32.377Z,6
2024-03-21T07:28:32.381Z,6
2024-03-21T07:29:32.376Z,6
2024-03-21T07:30:32.374Z,5
2024-03-21T07:31:32.374Z,6
2024-03-21T07:32:40.908Z,5
2024-03-21T07:33:32.377Z,5
2024-03-21T07:34:33.425Z,5
2024-03-21T07:35:32.375Z,5
2024-03-21T07:36:32.402Z,6
2024-03-21T07:37:32.374Z,5
2024-03-21T07:38:32.375Z,5
2024-03-21T07:39:32.393Z,5
2024-03-21T07:40:32.585Z,5
2024-03-21T07:41:46.701Z,6
2024-03-21T07:43:00.820Z,5
2024-03-21T07:44:14.962Z,5
2024-03-21T07:45:29.078Z,5
2024-03-21T07:46:43.193Z,6
2024-03-21T07:47:57.314Z,5
2024-03-21T07:49:11.442Z,5
2024-03-21T07:49:49.161Z,5
2024-03-21T07:51:02.635Z,6
2024-03-21T07:51:39.697Z,5
2024-03-21T07:52:53.826Z,5
2024-03-21T07:54:07.938Z,5
2024-03-21T07:54:44.998Z,6
2024-03-21T07:55:59.126Z,5
2024-03-21T07:57:13.254Z,6
2024-03-21T07:57:50.308Z,5
2024-03-21T07:59:04.498Z,6
2024-03-21T07:59:41.505Z,6
2024-03-21T08:01:33.074Z,6
2024-03-21T08:04:01.337Z,6
2024-03-21T08:05:15.480Z,6
2024-03-21T08:06:29.604Z,5
2024-03-21T08:08:57.920Z,5
2024-03-21T08:10:12.004Z,5
2024-03-21T08:11:26.135Z,6
2024-03-21T08:13:54.442Z,5
2024-03-21T08:15:08.546Z,5
2024-03-21T08:16:22.705Z,4
2024-03-21T08:17:36.809Z,4
2024-03-21T08:20:05.103Z,4
2024-03-21T08:21:20.608Z,4
2024-03-21T08:22:33.374Z,4
2024-03-21T08:25:01.619Z,4
2024-03-21T08:26:15.744Z,4
2024-03-21T08:27:29.882Z,4
2024-03-21T08:29:58.144Z,4
2024-03-21T08:31:12.280Z,5
2024-03-21T08:32:26.453Z,4
2024-03-21T08:34:54.674Z,3
2024-03-21T08:36:08.814Z,4
2024-03-21T08:37:22.998Z,3
2024-03-21T08:38:37.084Z,3
2024-03-21T08:41:06.110Z,3
2024-03-21T08:43:34.381Z,4
2024-03-21T09:45:34.089Z,3
2024-03-21T09:46:44.744Z,3
2024-03-21T09:47:32.384Z,4
2024-03-21T09:48:32.299Z,4
2024-03-21T09:49:32.336Z,4
2024-03-21T09:50:32.298Z,4
2024-03-21T09:51:32.376Z,4
2024-03-21T09:52:32.303Z,4
2024-03-21T09:53:32.427Z,4
2024-03-21T09:54:32.297Z,4
2024-03-21T09:55:32.304Z,4
2024-03-21T09:56:32.298Z,4
2024-03-21T09:57:32.305Z,3
2024-03-21T09:58:32.328Z,4
2024-03-21T09:59:32.324Z,3
2024-03-21T10:00:32.301Z,4
2024-03-21T10:01:32.381Z,4
2024-03-21T10:02:32.297Z,4
2024-03-21T10:03:32.335Z,4
2024-03-21T10:04:32.343Z,3
2024-03-21T10:05:32.305Z,4
2024-03-21T10:06:32.300Z,3
2024-03-21T10:07:32.365Z,3
2024-03-21T10:08:32.306Z,3
2024-03-21T10:09:32.393Z,3
2024-03-21T10:10:32.343Z,3
2024-03-21T10:11:32.344Z,4
2024-03-21T10:12:32.338Z,3
2024-03-21T10:13:32.306Z,3
2024-03-21T10:14:32.311Z,3
2024-03-21T10:15:32.301Z,3
2024-03-21T10:16:32.323Z,3
2024-03-21T10:17:32.313Z,3
2024-03-21T10:18:32.309Z,4
2024-03-21T10:19:32.302Z,3
2024-03-21T10:20:32.308Z,3
2024-03-21T10:21:32.309Z,3
2024-03-21T10:22:32.321Z,4
2024-03-21T10:23:32.310Z,3
2024-03-21T10:24:32.308Z,3
2024-03-21T10:25:32.309Z,3
2024-03-21T10:26:32.311Z,3
2024-03-21T10:27:32.360Z,3
2024-03-21T10:29:32.365Z,3
2024-03-21T10:30:32.364Z,3
2024-03-21T10:31:32.360Z,3
2024-03-21T10:32:32.420Z,3
2024-03-21T10:33:32.366Z,3
2024-03-21T10:34:32.363Z,3
2024-03-21T10:35:32.423Z,3
2024-03-21T10:36:32.356Z,3
2024-03-21T10:37:32.360Z,3
2024-03-21T10:38:32.384Z,3
2024-03-21T10:39:32.357Z,3
2024-03-21T10:40:32.360Z,3
2024-03-21T10:41:32.367Z,3
2024-03-21T10:42:32.373Z,3
2024-03-21T10:43:32.452Z,3
2024-03-21T10:44:32.458Z,3
2024-03-21T10:45:32.461Z,3
2024-03-21T10:46:32.451Z,3
2024-03-21T10:47:32.465Z,2
2024-03-21T10:48:32.463Z,3
2024-03-21T10:49:32.448Z,3
2024-03-21T10:50:32.466Z,3
2024-03-21T10:51:32.484Z,3
2024-03-21T10:52:32.455Z,3
2024-03-21T10:53:32.472Z,4
2024-03-21T10:54:32.481Z,3
2024-03-21T10:55:32.471Z,4
2024-03-21T10:56:32.460Z,4
2024-03-21T10:57:32.456Z,4
2024-03-21T10:58:32.452Z,4
2024-03-21T10:59:32.466Z,3
2024-03-21T11:00:32.644Z,3
2024-03-21T11:01:46.811Z,3
2024-03-21T11:03:00.892Z,3
2024-03-21T11:04:15.024Z,3
2024-03-21T11:05:29.161Z,3
2024-03-21T11:06:43.262Z,3
2024-03-21T11:07:57.406Z,3
2024-03-21T11:09:11.511Z,3
2024-03-21T11:09:48.709Z,3
2024-03-21T11:11:02.732Z,3
2024-03-21T11:11:39.780Z,3
2024-03-21T11:12:53.974Z,3
2024-03-21T11:14:08.045Z,3
2024-03-21T11:14:45.085Z,3
2024-03-21T11:15:59.210Z,3
2024-03-21T11:17:13.408Z,3
2024-03-21T11:17:50.421Z,3
2024-03-21T11:19:04.512Z,3
2024-03-21T11:19:41.571Z,3
2024-03-21T11:21:33.153Z,3
2024-03-21T11:24:01.406Z,3
2024-03-21T11:25:15.544Z,3
2024-03-21T11:26:29.672Z,3
2024-03-21T11:29:01.923Z,3
2024-03-21T11:30:12.148Z,3
2024-03-21T11:31:26.214Z,3
2024-03-21T11:33:54.486Z,3
2024-03-21T11:35:08.628Z,3
2024-03-21T11:36:22.750Z,3
2024-03-21T11:37:36.875Z,3
2024-03-21T11:40:05.152Z,4
2024-03-21T11:41:19.297Z,4
2024-03-21T11:42:33.424Z,4
2024-03-21T11:45:01.684Z,3
2024-03-21T11:46:15.819Z,3
2024-03-21T11:47:30.729Z,4
2024-03-21T11:49:58.223Z,3
2024-03-21T11:51:12.358Z,3
2024-03-21T11:52:26.494Z,4
2024-03-21T11:54:54.746Z,3
2024-03-21T11:56:08.911Z,3
2024-03-21T11:57:23.035Z,4
2024-03-21T11:58:37.144Z,4
2024-03-21T12:01:06.207Z,3
2024-03-21T12:03:34.474Z,4
2024-03-21T12:50:32.490Z,6
2024-03-21T12:51:32.437Z,5
2024-03-21T12:52:32.368Z,5
2024-03-21T12:53:32.477Z,5
2024-03-21T12:54:33.339Z,5
2024-03-21T12:55:32.613Z,6
2024-03-21T12:57:32.563Z,5
2024-03-21T12:58:32.362Z,5
2024-03-21T12:59:32.381Z,5
2024-03-21T13:00:32.382Z,5
2024-03-21T13:01:32.464Z,4
2024-03-21T13:02:32.964Z,5
2024-03-21T13:03:32.373Z,5
2024-03-21T13:04:32.374Z,5
2024-03-21T13:05:32.378Z,5
2024-03-21T13:06:32.367Z,5
2024-03-21T13:07:32.374Z,4
2024-03-21T13:08:32.384Z,5
2024-03-21T13:09:32.371Z,4
2024-03-21T13:10:32.378Z,4
2024-03-21T13:11:32.373Z,5
2024-03-21T13:12:33.038Z,5
2024-03-21T13:13:32.412Z,5
2024-03-21T13:14:32.409Z,5
2024-03-21T13:15:32.388Z,5
2024-03-21T13:16:32.378Z,5
2024-03-21T13:17:32.451Z,5
2024-03-21T13:18:32.379Z,4
2024-03-21T13:19:32.382Z,5
2024-03-21T13:20:32.399Z,5
2024-03-21T13:21:32.374Z,5
2024-03-21T13:22:32.390Z,5
2024-03-21T13:23:32.383Z,4
2024-03-21T13:24:32.392Z,4
2024-03-21T13:25:32.386Z,4
2024-03-21T13:26:32.383Z,5
2024-03-21T13:27:32.444Z,5
2024-03-21T13:28:32.389Z,4
2024-03-21T13:29:32.432Z,6
2024-03-21T13:30:32.434Z,5
2024-03-21T13:31:32.433Z,5
2024-03-21T13:32:32.436Z,5
2024-03-21T13:33:32.427Z,5
2024-03-21T13:34:32.468Z,4
2024-03-21T13:35:32.450Z,4
2024-03-21T13:36:32.438Z,3
2024-03-21T13:37:32.465Z,3
2024-03-21T13:38:32.442Z,3
2024-03-21T13:39:32.440Z,3
2024-03-21T13:40:32.435Z,4
2024-03-21T13:41:32.445Z,4
2024-03-21T13:42:32.462Z,4
2024-03-21T13:43:32.431Z,3
2024-03-21T13:44:32.435Z,4
2024-03-21T13:45:32.905Z,3
2024-03-21T13:46:32.522Z,4
2024-03-21T13:47:32.517Z,4
2024-03-21T13:48:32.520Z,3
2024-03-21T13:49:32.522Z,3
2024-03-21T13:50:32.513Z,3
2024-03-21T13:51:32.562Z,4
2024-03-21T13:52:32.520Z,3
2024-03-21T13:53:43.136Z,3
2024-03-21T13:54:32.523Z,4
2024-03-21T13:55:32.543Z,3
2024-03-21T13:56:32.518Z,3
2024-03-21T13:57:32.532Z,3
2024-03-21T13:58:32.530Z,3
2024-03-21T13:59:32.524Z,5
2024-03-21T14:00:32.533Z,6
2024-03-21T14:02:34.241Z,4
2024-03-21T14:03:48.391Z,5
2024-03-21T14:05:02.490Z,5
2024-03-21T14:06:16.616Z,6
2024-03-21T14:07:30.739Z,6
2024-03-21T14:08:44.862Z,6
2024-03-21T14:09:58.993Z,5
2024-03-21T14:11:13.123Z,4
2024-03-21T14:11:50.177Z,4
2024-03-21T14:13:04.288Z,4
2024-03-21T14:13:41.357Z,4
2024-03-21T14:14:55.482Z,4
2024-03-21T14:16:09.608Z,4
2024-03-21T14:16:46.664Z,4
2024-03-21T14:18:02.249Z,4
2024-03-21T14:19:14.911Z,4
2024-03-21T14:19:51.976Z,4
2024-03-21T14:21:06.486Z,4
2024-03-21T14:22:20.618Z,6
2024-03-21T14:24:48.884Z,5
2024-03-21T14:26:03.022Z,5
2024-03-21T14:27:17.153Z,5
2024-03-21T14:28:31.280Z,4
2024-03-21T14:30:59.567Z,4
2024-03-21T14:32:13.694Z,5
2024-03-21T14:33:27.819Z,7
2024-03-21T14:35:56.087Z,6
2024-03-21T14:37:10.605Z,6
2024-03-21T14:38:24.359Z,6
2024-03-21T14:39:38.483Z,6
2024-03-21T14:42:06.759Z,13
2024-03-21T14:43:20.894Z,12
2024-03-21T14:44:35.044Z,13
2024-03-21T14:47:03.301Z,11
2024-03-21T14:48:17.422Z,11
2024-03-21T14:49:31.568Z,11
2024-03-21T14:51:59.831Z,8
2024-03-21T14:53:14.362Z,7
2024-03-21T14:54:28.090Z,6
2024-03-21T14:56:56.370Z,5
2024-03-21T14:58:10.500Z,4
2024-03-21T14:59:24.622Z,6
2024-03-21T15:00:38.773Z,6
2024-03-21T15:04:21.929Z,7
2024-03-21T18:27:19.957Z,5
2024-03-21T18:29:32.514Z,6
2024-03-21T18:30:32.521Z,6
2024-03-21T18:31:32.510Z,6
2024-03-21T18:32:32.528Z,6
2024-03-21T18:33:32.527Z,6
2024-03-21T18:34:32.522Z,7
2024-03-21T18:35:32.521Z,6
2024-03-21T18:36:32.545Z,7
2024-03-21T18:37:32.522Z,6
2024-03-21T18:38:32.523Z,6
2024-03-21T18:39:32.519Z,6
2024-03-21T18:40:32.519Z,7
2024-03-21T18:41:32.564Z,7
2024-03-21T18:42:32.518Z,6
2024-03-21T18:43:32.530Z,6
2024-03-21T18:44:32.515Z,7
2024-03-21T18:45:32.519Z,7
2024-03-21T18:46:32.517Z,6
2024-03-21T18:47:32.533Z,6
2024-03-21T18:48:32.519Z,7
2024-03-21T18:49:32.517Z,8
2024-03-21T18:50:32.518Z,7
2024-03-21T18:51:32.526Z,7
2024-03-21T18:52:32.530Z,6
2024-03-21T18:53:32.521Z,7
2024-03-21T18:54:32.522Z,6
2024-03-21T18:55:32.531Z,7
2024-03-21T18:56:32.562Z,7
2024-03-21T18:57:32.528Z,7
2024-03-21T18:58:32.530Z,7
2024-03-21T18:59:32.531Z,7
2024-03-21T19:00:32.527Z,8
2024-03-21T19:01:32.529Z,7
2024-03-21T19:02:32.524Z,7
2024-03-21T19:03:32.529Z,7
2024-03-21T19:04:32.527Z,7
2024-03-21T19:05:32.533Z,7
2024-03-21T19:06:32.533Z,8
2024-03-21T19:07:32.542Z,8
2024-03-21T19:08:32.535Z,8
2024-03-21T19:09:32.546Z,8
2024-03-21T19:10:32.578Z,8
2024-03-21T19:11:32.593Z,8
2024-03-21T19:12:32.588Z,8
2024-03-21T19:13:32.585Z,8
2024-03-21T19:14:32.581Z,7
2024-03-21T19:15:32.579Z,7
2024-03-21T19:16:32.580Z,8
2024-03-21T19:17:32.602Z,8
2024-03-21T19:18:32.580Z,8
2024-03-21T19:19:32.575Z,7
2024-03-21T19:20:32.582Z,9
2024-03-21T19:21:32.586Z,7
2024-03-21T19:22:32.587Z,8
2024-03-21T19:23:32.590Z,8
2024-03-21T19:24:32.582Z,9
2024-03-21T19:25:32.582Z,9
2024-03-21T19:26:32.577Z,8
2024-03-21T19:27:32.674Z,8
2024-03-21T19:28:32.664Z,7
2024-03-21T19:29:32.713Z,8
2024-03-21T19:30:32.670Z,8
2024-03-21T19:31:32.668Z,8
2024-03-21T19:32:32.694Z,8
2024-03-21T19:33:32.673Z,8
2024-03-21T19:34:32.670Z,7
2024-03-21T19:35:32.665Z,8
2024-03-21T19:36:32.680Z,9
2024-03-21T19:37:32.688Z,9
2024-03-21T19:38:32.668Z,9
2024-03-21T19:39:32.686Z,8
2024-03-21T19:40:32.737Z,9
2024-03-21T19:41:32.680Z,9
2024-03-21T19:42:32.683Z,8
2024-03-21T19:43:32.859Z,8
2024-03-21T19:44:46.999Z,7
2024-03-21T19:46:01.113Z,8
2024-03-21T19:47:15.243Z,8
2024-03-21T19:48:29.355Z,8
2024-03-21T19:49:43.490Z,8
2024-03-21T19:50:57.604Z,8
2024-03-21T19:52:11.735Z,8
2024-03-21T19:52:48.792Z,7
2024-03-21T19:54:02.922Z,8
2024-03-21T19:54:39.976Z,8
2024-03-21T19:55:54.875Z,8
2024-03-21T19:57:08.226Z,8
2024-03-21T19:57:45.300Z,8
2024-03-21T19:58:59.408Z,8
2024-03-21T20:00:13.538Z,8
2024-03-21T20:00:50.612Z,8
2024-03-21T20:02:04.721Z,9
2024-03-21T20:02:41.798Z,8
2024-03-21T20:03:56.286Z,8
2024-03-21T20:06:24.934Z,8
2024-03-21T20:07:38.698Z,8
2024-03-21T20:10:06.955Z,8
2024-03-21T20:11:21.096Z,8
2024-03-21T20:12:35.226Z,8
2024-03-21T20:15:03.501Z,8
2024-03-21T20:16:17.638Z,8
2024-03-21T20:17:32.812Z,8
2024-03-21T20:20:00.027Z,9
2024-03-21T20:21:14.163Z,8
2024-03-21T20:22:30.036Z,9
2024-03-21T20:24:56.561Z,9
2024-03-21T20:26:10.698Z,9
2024-03-21T20:27:24.844Z,9
2024-03-21T20:28:38.965Z,9
2024-03-21T20:31:07.234Z,8
2024-03-21T20:32:21.370Z,8
2024-03-21T20:33:35.509Z,8
2024-03-21T20:36:03.771Z,8
2024-03-21T20:37:17.901Z,9
2024-03-21T20:38:32.035Z,8
2024-03-21T20:41:00.303Z,9
2024-03-21T20:42:14.438Z,8
2024-03-21T20:43:28.579Z,9
2024-03-21T20:47:11.748Z,9
2024-03-21T22:12:46.119Z,15
2024-03-21T22:13:32.610Z,15
2024-03-21T22:14:32.624Z,16
2024-03-21T22:15:32.605Z,16
2024-03-21T22:16:32.621Z,15
2024-03-21T22:17:32.685Z,17
2024-03-21T22:18:32.612Z,17
2024-03-21T22:19:32.607Z,15
2024-03-21T22:20:32.630Z,16
2024-03-21T22:21:32.633Z,15
2024-03-21T22:22:32.626Z,15
2024-03-21T22:23:32.649Z,16
2024-03-21T22:24:32.632Z,16
2024-03-21T22:25:32.621Z,16
2024-03-21T22:27:32.628Z,15
2024-03-21T22:28:32.608Z,15
2024-03-21T22:29:32.649Z,16
2024-03-21T22:30:32.614Z,15
2024-03-21T22:31:32.611Z,14
2024-03-21T22:32:32.639Z,14
2024-03-21T22:33:32.648Z,15
2024-03-21T22:34:32.612Z,15
2024-03-21T22:35:33.427Z,15
2024-03-21T22:36:32.620Z,14
2024-03-21T22:37:32.632Z,14
2024-03-21T22:38:32.652Z,15
2024-03-21T22:39:32.612Z,15
2024-03-21T22:40:32.645Z,16
2024-03-21T22:41:32.686Z,14
2024-03-21T22:42:32.626Z,15
2024-03-21T22:43:32.652Z,13
2024-03-21T22:44:32.669Z,14
2024-03-21T22:45:32.623Z,15
2024-03-21T22:46:32.634Z,15
2024-03-21T22:47:32.675Z,14
2024-03-21T22:48:32.623Z,14
2024-03-21T22:49:32.615Z,14
2024-03-21T22:50:32.643Z,12
2024-03-21T22:51:32.623Z,14
2024-03-21T22:52:32.627Z,14
2024-03-21T22:53:32.665Z,12
2024-03-21T22:54:32.672Z,13
2024-03-21T22:55:32.659Z,13
2024-03-21T22:56:32.686Z,15
2024-03-21T22:57:32.657Z,13
2024-03-21T22:58:32.668Z,13
2024-03-21T22:59:32.715Z,13
2024-03-21T23:00:32.665Z,13
2024-03-21T23:01:32.671Z,13
2024-03-21T23:02:32.775Z,14
2024-03-21T23:03:32.680Z,12
2024-03-21T23:04:32.676Z,13
2024-03-21T23:05:32.699Z,13
2024-03-21T23:06:32.687Z,14
2024-03-21T23:07:32.669Z,12
2024-03-21T23:08:32.710Z,12
2024-03-21T23:09:32.754Z,12
2024-03-21T23:10:32.756Z,12
2024-03-21T23:11:32.773Z,13
2024-03-21T23:12:32.753Z,13
2024-03-21T23:13:32.784Z,12
2024-03-21T23:14:32.786Z,12
2024-03-21T23:15:32.769Z,13
2024-03-21T23:16:32.754Z,13
2024-03-21T23:17:32.769Z,13
2024-03-21T23:18:32.766Z,13
2024-03-21T23:19:32.765Z,12
2024-03-21T23:20:32.827Z,12
2024-03-21T23:21:32.763Z,13
2024-03-21T23:22:32.765Z,12
2024-03-21T23:23:32.776Z,11
2024-03-21T23:24:32.762Z,13
2024-03-21T23:25:32.954Z,11
2024-03-21T23:26:47.086Z,13
2024-03-21T23:28:01.207Z,12
2024-03-21T23:29:15.326Z,12
2024-03-21T23:30:29.444Z,13
2024-03-21T23:31:43.576Z,13
2024-03-21T23:32:57.709Z,13
2024-03-21T23:34:11.833Z,12
2024-03-21T23:34:48.881Z,12
2024-03-21T23:36:03.400Z,12
2024-03-21T23:36:40.079Z,11
2024-03-21T23:37:54.191Z,11
2024-03-21T23:39:08.315Z,11
2024-03-21T23:39:45.382Z,12
2024-03-21T23:40:59.510Z,11
2024-03-21T23:42:13.631Z,12
2024-03-21T23:42:50.698Z,12
2024-03-21T23:44:04.820Z,12
2024-03-21T23:44:41.933Z,12
2024-03-21T23:45:56.379Z,11
2024-03-21T23:48:24.650Z,12
2024-03-21T23:49:38.781Z,11
2024-03-21T23:52:07.044Z,12
2024-03-21T23:53:21.568Z,12
2024-03-21T23:54:35.308Z,11
2024-03-21T23:57:03.594Z,11
2024-03-21T23:58:17.703Z,11
2024-03-21T23:59:31.846Z,11
